Time;durP1;ratioP1;P1;durP2;ratioP2;P2;SDS_P1;SDS_P2;PMS_P1;PMS_P2;Temp;Humidity;BMP_temperature;BMP_pressure;BME280_temperature;BME280_humidity;BME280_pressure;Samples;Min_cycle;Max_cycle;Signal;HPM_P1;HPM_P2
2021/05/29 00:02:14;;;;;;;4.47;2.20;;;;;;;9.87;92.15;94228.50;5072476;28;20704;-77
2021/05/29 00:04:41;;;;;;;8.00;2.60;;;;;;;9.90;88.30;94225.53;5072509;28;20244;-76
2021/05/29 00:07:08;;;;;;;4.83;2.20;;;;;;;9.87;89.16;94221.50;5072469;28;20199;-77
2021/05/29 00:09:34;;;;;;;3.53;2.23;;;;;;;9.91;87.27;94227.97;5072417;28;20729;-76
2021/05/29 00:12:00;;;;;;;4.63;2.90;;;;;;;9.92;88.69;94207.91;5072800;28;20226;-77
2021/05/29 00:14:26;;;;;;;6.93;2.63;;;;;;;9.95;88.06;94215.34;5072647;28;20205;-77
2021/05/29 00:16:52;;;;;;;5.80;2.40;;;;;;;9.88;88.49;94217.91;5072556;28;20199;-77
2021/05/29 00:19:18;;;;;;;4.23;2.33;;;;;;;9.84;88.27;94219.25;5072352;28;20245;-77
2021/05/29 00:21:45;;;;;;;2.90;2.20;;;;;;;9.79;88.77;94208.56;5072373;28;20234;-77
2021/05/29 00:24:11;;;;;;;3.30;2.00;;;;;;;9.72;88.56;94210.28;5071864;28;20261;-76
2021/05/29 00:26:39;;;;;;;4.50;2.03;;;;;;;9.66;90.25;94211.84;5075790;28;20637;-76
2021/05/29 00:29:05;;;;;;;2.97;2.13;;;;;;;9.60;91.46;94215.97;5076141;28;20203;-76
2021/05/29 00:31:31;;;;;;;2.87;2.00;;;;;;;9.57;90.92;94210.34;5076033;28;20673;-76
2021/05/29 00:33:58;;;;;;;4.07;2.37;;;;;;;9.58;91.34;94210.16;5075816;28;20222;-76
2021/05/29 00:36:24;;;;;;;4.03;2.27;;;;;;;9.55;92.29;94202.69;5075826;28;20203;-76
2021/05/29 00:38:51;;;;;;;4.47;2.30;;;;;;;9.56;94.64;94203.50;5077799;28;20434;-77
2021/05/29 00:41:20;;;;;;;5.13;2.57;;;;;;;9.51;93.38;94196.25;5075973;28;20229;-75
2021/05/29 00:43:47;;;;;;;3.37;2.33;;;;;;;9.45;94.48;94202.19;5075905;28;20226;-76
2021/05/29 00:46:14;;;;;;;3.50;2.20;;;;;;;9.42;95.70;94203.34;5075770;28;20206;-76
2021/05/29 00:48:40;;;;;;;4.80;2.20;;;;;;;9.37;96.67;94202.28;5075832;28;20209;-76
2021/05/29 00:51:08;;;;;;;3.17;2.00;;;;;;;9.38;96.63;94201.31;5075506;28;20199;-76
2021/05/29 00:53:36;;;;;;;3.20;2.17;;;;;;;9.39;98.34;94200.28;5075664;28;20258;-76
2021/05/29 00:56:06;;;;;;;4.47;2.23;;;;;;;9.40;97.39;94194.91;5075793;28;20248;-76
2021/05/29 00:58:32;;;;;;;6.07;2.97;;;;;;;9.46;97.32;94188.16;5075595;28;20221;-75
2021/05/29 01:01:01;;;;;;;7.53;3.40;;;;;;;9.50;97.24;94193.81;5075498;28;20297;-76
2021/05/29 01:03:29;;;;;;;6.80;3.67;;;;;;;9.61;94.32;94180.31;5075487;28;20203;-77
2021/05/29 01:05:55;;;;;;;7.93;3.23;;;;;;;9.68;94.68;94185.59;5075262;28;20195;-77
2021/05/29 01:08:23;;;;;;;5.90;2.90;;;;;;;9.72;94.85;94192.03;5075458;28;20202;-76
2021/05/29 01:10:50;;;;;;;8.33;2.83;;;;;;;9.73;94.62;94194.47;5075520;28;20630;-77
2021/05/29 01:13:24;;;;;;;5.33;2.80;;;;;;;9.71;96.51;94185.22;5075220;28;20327;-76
2021/05/29 01:15:50;;;;;;;5.27;3.23;;;;;;;9.75;96.01;94191.69;5075330;28;20248;-76
2021/05/29 01:18:20;;;;;;;5.13;2.70;;;;;;;9.76;94.62;94201.13;5075016;28;20206;-77
2021/05/29 01:20:47;;;;;;;5.60;2.97;;;;;;;9.81;94.01;94188.34;5075267;28;20273;-77
2021/05/29 01:23:15;;;;;;;5.57;3.10;;;;;;;9.81;94.42;94186.53;5075026;28;20321;-77
2021/05/29 01:25:46;;;;;;;5.07;2.80;;;;;;;9.79;94.13;94182.47;5075027;28;20194;-77
2021/05/29 01:28:20;;;;;;;6.17;3.20;;;;;;;9.75;94.58;94189.06;5074948;28;20195;-77
2021/05/29 01:30:49;;;;;;;9.07;3.30;;;;;;;9.75;94.50;94192.47;5074929;28;20198;-77
2021/05/29 01:33:18;;;;;;;9.37;2.93;;;;;;;9.72;93.56;94195.44;5074658;28;20222;-77
2021/05/29 01:35:45;;;;;;;7.30;3.07;;;;;;;9.70;93.84;94189.63;5074490;28;20198;-77
2021/05/29 01:38:14;;;;;;;4.40;3.00;;;;;;;9.65;93.97;94186.75;5074788;28;20229;-76
2021/05/29 01:40:45;;;;;;;6.80;3.03;;;;;;;9.60;94.47;94192.53;5074719;28;20195;-76
2021/05/29 01:43:12;;;;;;;4.97;3.27;;;;;;;9.56;95.50;94187.84;5074685;28;20612;-76
2021/05/29 01:45:42;;;;;;;6.27;3.43;;;;;;;9.54;94.74;94195.88;5074553;28;20198;-76
2021/05/29 01:48:08;;;;;;;5.13;3.30;;;;;;;9.56;93.64;94186.06;5074755;28;20203;-76
2021/05/29 01:50:45;;;;;;;5.00;3.50;;;;;;;9.52;94.34;94187.41;5074639;28;20203;-76
2021/05/29 01:53:12;;;;;;;6.73;3.10;;;;;;;9.50;96.86;94186.00;5074439;28;20685;-76
2021/05/29 01:55:40;;;;;;;5.17;3.20;;;;;;;9.44;94.45;94184.91;5074560;28;20206;-76
2021/05/29 01:58:07;;;;;;;4.17;2.97;;;;;;;9.44;94.47;94182.31;5074586;28;20206;-76
2021/05/29 02:00:34;;;;;;;4.87;3.40;;;;;;;9.42;94.58;94177.28;5074470;28;20198;-77
2021/05/29 02:03:00;;;;;;;7.97;3.07;;;;;;;9.42;94.16;94172.06;5074284;28;20203;-77
2021/05/29 02:05:27;;;;;;;3.80;2.90;;;;;;;9.37;94.57;94177.03;5074305;28;20294;-77
2021/05/29 02:07:58;;;;;;;5.25;2.97;;;;;;;9.40;93.96;94181.06;5073001;28;20485;-76
2021/05/29 02:10:26;;;;;;;8.17;3.03;;;;;;;9.37;94.28;94179.63;5074070;28;20198;-77
2021/05/29 02:12:55;;;;;;;4.87;2.63;;;;;;;9.37;93.65;94184.03;5074163;28;20222;-76
2021/05/29 02:15:24;;;;;;;5.00;2.70;;;;;;;9.34;94.57;94184.41;5074103;28;20199;-76
2021/05/29 02:17:52;;;;;;;4.23;2.67;;;;;;;9.32;95.37;94187.19;5074044;28;20210;-76
2021/05/29 02:20:19;;;;;;;6.43;2.63;;;;;;;9.31;94.36;94189.97;5073923;28;20199;-77
2021/05/29 02:22:45;;;;;;;4.73;2.87;;;;;;;9.33;94.06;94188.03;5073590;28;20206;-77
2021/05/29 02:25:12;;;;;;;3.57;2.50;;;;;;;9.27;94.22;94184.31;5073766;28;20221;-76
2021/05/29 02:27:41;;;;;;;4.40;2.10;;;;;;;9.31;93.87;94184.75;5074112;28;20237;-76
2021/05/29 02:30:08;;;;;;;4.33;2.40;;;;;;;9.25;94.93;94192.31;5073782;28;20211;-77
2021/05/29 02:32:35;;;;;;;3.97;2.30;;;;;;;9.20;95.77;94186.84;5073678;28;20225;-76
2021/05/29 02:35:02;;;;;;;2.63;2.00;;;;;;;9.17;96.47;94194.22;5073792;28;20198;-77
2021/05/29 02:37:28;;;;;;;9.70;2.70;;;;;;;9.12;95.59;94189.53;5073491;28;20286;-76
2021/05/29 02:40:00;;;;;;;4.50;2.50;;;;;;;9.18;94.96;94183.63;5073786;28;20286;-77
2021/05/29 02:42:26;;;;;;;4.47;2.67;;;;;;;9.17;94.36;94189.81;5076066;28;20199;-77
2021/05/29 02:44:52;;;;;;;4.67;2.47;;;;;;;9.24;94.61;94190.72;5073350;28;20250;-77
2021/05/29 02:47:21;;;;;;;3.03;2.70;;;;;;;9.30;92.13;94190.97;5072770;28;20199;-77
2021/05/29 02:49:48;;;;;;;7.17;2.60;;;;;;;9.30;92.08;94189.19;5073257;28;20199;-77
2021/05/29 02:52:14;;;;;;;3.73;2.20;;;;;;;9.28;93.67;94187.75;5073502;28;20237;-77
2021/05/29 02:54:42;;;;;;;3.63;2.07;;;;;;;9.26;93.63;94188.75;5073458;28;20293;-76
2021/05/29 02:57:09;;;;;;;4.87;2.70;;;;;;;9.26;93.49;94183.53;5073410;28;20203;-76
2021/05/29 02:59:35;;;;;;;5.87;2.33;;;;;;;9.31;93.26;94192.56;5073180;28;20202;-77
2021/05/29 03:02:01;;;;;;;4.00;2.40;;;;;;;9.29;91.91;94184.94;5073133;28;20699;-77
2021/05/29 03:04:27;;;;;;;3.90;2.30;;;;;;;9.30;92.33;94186.56;5073088;28;20209;-76
2021/05/29 03:06:53;;;;;;;3.80;2.57;;;;;;;9.35;91.01;94199.06;5073299;28;20198;-76
2021/05/29 03:09:19;;;;;;;2.83;1.97;;;;;;;9.34;92.04;94193.06;5073315;28;20199;-76
2021/05/29 03:11:46;;;;;;;3.40;2.20;;;;;;;9.30;90.75;94188.38;5073235;28;20286;-77
2021/05/29 03:14:12;;;;;;;3.33;2.13;;;;;;;9.26;92.28;94193.94;5072893;28;20697;-76
2021/05/29 03:16:38;;;;;;;3.90;2.00;;;;;;;9.29;91.20;94194.56;5073029;28;20244;-76
2021/05/29 03:19:04;;;;;;;3.53;2.10;;;;;;;9.29;90.30;94205.00;5072878;28;20198;-76
2021/05/29 03:21:30;;;;;;;4.73;2.40;;;;;;;9.27;91.39;94202.56;5073171;28;20252;-76
2021/05/29 03:23:57;;;;;;;4.23;2.30;;;;;;;9.28;90.20;94206.00;5072846;28;20239;-77
2021/05/29 03:26:23;;;;;;;3.23;2.47;;;;;;;9.31;91.51;94198.63;5072783;28;20743;-76
2021/05/29 03:28:51;;;;;;;3.37;2.63;;;;;;;9.29;89.72;94191.97;5072945;28;20202;-76
2021/05/29 03:31:17;;;;;;;5.33;2.40;;;;;;;9.24;89.38;94205.53;5072907;28;20220;-77
2021/05/29 03:33:43;;;;;;;4.82;2.05;;;;;;;9.22;91.63;94205.69;5072485;28;20457;-77
2021/05/29 03:36:09;;;;;;;3.07;2.00;;;;;;;9.20;91.32;94210.28;5072996;28;20225;-77
2021/05/29 03:38:35;;;;;;;2.50;2.00;;;;;;;9.19;90.85;94215.69;5072824;28;20203;-76
2021/05/29 03:41:03;;;;;;;7.43;2.00;;;;;;;9.18;91.46;94211.47;5072811;28;20202;-76
2021/05/29 03:43:29;;;;;;;2.40;1.67;;;;;;;9.18;91.26;94220.09;5072618;28;20657;-76
2021/05/29 03:45:55;;;;;;;5.53;2.10;;;;;;;9.14;91.35;94212.81;5072712;28;20264;-76
2021/05/29 03:48:21;;;;;;;3.47;1.77;;;;;;;9.13;91.24;94216.44;5072549;28;20204;-76
2021/05/29 03:50:47;;;;;;;2.43;1.70;;;;;;;9.06;91.17;94218.94;5072796;28;20207;-76
2021/05/29 03:53:13;;;;;;;5.10;1.93;;;;;;;9.09;92.61;94218.56;5072481;28;20226;-77
2021/05/29 03:55:39;;;;;;;5.67;2.27;;;;;;;9.01;93.98;94210.84;5072532;28;20689;-77
2021/05/29 03:58:06;;;;;;;3.13;1.80;;;;;;;8.97;93.66;94220.81;5072680;28;20199;-77
2021/05/29 04:00:33;;;;;;;2.53;1.47;;;;;;;8.95;95.23;94222.78;5076336;28;20199;-77
2021/05/29 04:02:59;;;;;;;3.47;1.97;;;;;;;8.94;94.26;94225.56;5076545;28;20254;-77
2021/05/29 04:05:25;;;;;;;3.83;1.73;;;;;;;8.95;93.53;94225.38;5076743;28;20600;-77
2021/05/29 04:07:52;;;;;;;4.53;1.93;;;;;;;8.97;98.39;94233.03;5076735;28;20233;-77
2021/05/29 04:10:20;;;;;;;2.83;2.23;;;;;;;8.93;96.72;94218.75;5076457;28;20289;-76
2021/05/29 04:12:47;;;;;;;3.73;2.20;;;;;;;8.95;95.80;94224.59;5076348;28;20218;-77
2021/05/29 04:15:16;;;;;;;2.77;1.77;;;;;;;8.98;96.71;94226.84;5076175;28;20206;-76
2021/05/29 04:17:43;;;;;;;4.87;1.90;;;;;;;8.97;97.51;94230.41;5076489;28;20214;-78
2021/05/29 04:20:12;;;;;;;5.53;2.20;;;;;;;8.98;96.31;94230.25;5076354;28;20202;-77
2021/05/29 04:22:39;;;;;;;6.00;1.93;;;;;;;8.94;95.68;94230.78;5076059;28;20199;-76
2021/05/29 04:25:06;;;;;;;8.27;1.60;;;;;;;8.92;97.62;94236.16;5076264;28;20202;-77
2021/05/29 04:27:32;;;;;;;2.97;1.80;;;;;;;8.89;98.44;94239.13;5076128;28;20195;-77
2021/05/29 04:29:59;;;;;;;4.10;1.63;;;;;;;8.99;98.30;94234.47;5076041;28;20209;-77
2021/05/29 04:32:26;;;;;;;2.97;1.63;;;;;;;9.03;97.87;94234.91;5075859;28;20317;-77
2021/05/29 04:34:53;;;;;;;3.47;1.70;;;;;;;9.07;97.51;94238.78;5076104;28;20226;-76
2021/05/29 04:37:19;;;;;;;2.90;1.80;;;;;;;9.08;97.53;94240.41;5075962;28;20210;-76
2021/05/29 04:39:45;;;;;;;3.23;1.60;;;;;;;9.14;97.06;94242.25;5075913;28;20562;-77
2021/05/29 04:42:12;;;;;;;6.63;1.97;;;;;;;9.21;94.26;94240.56;5078310;28;20244;-77
2021/05/29 04:44:38;;;;;;;3.23;1.83;;;;;;;9.36;95.34;94244.94;5075562;28;20625;-77
2021/05/29 04:47:04;;;;;;;3.80;1.80;;;;;;;9.44;95.78;94244.84;5075878;28;20202;-77
2021/05/29 04:49:31;;;;;;;3.60;1.90;;;;;;;9.48;95.46;94243.53;5075604;28;20199;-76
2021/05/29 04:51:59;;;;;;;2.47;1.63;;;;;;;9.54;94.74;94248.00;5075054;28;20465;-77
2021/05/29 04:54:26;;;;;;;3.00;1.60;;;;;;;9.58;93.34;94251.84;5075532;28;20580;-77
2021/05/29 04:56:52;;;;;;;3.93;1.63;;;;;;;9.57;96.13;94250.22;5075590;28;20718;-77
2021/05/29 04:59:18;;;;;;;2.10;1.60;;;;;;;9.59;93.69;94242.22;5075373;28;20209;-76
2021/05/29 05:01:44;;;;;;;3.73;1.80;;;;;;;9.67;90.76;94251.75;5075529;28;20205;-77
2021/05/29 05:04:10;;;;;;;2.90;1.50;;;;;;;9.78;91.61;94253.91;5075532;28;20565;-76
2021/05/29 05:06:37;;;;;;;4.07;1.60;;;;;;;9.81;89.60;94253.53;5075526;28;20198;-77
2021/05/29 05:09:04;;;;;;;2.37;1.33;;;;;;;9.84;90.37;94253.16;5075305;28;20653;-76
2021/05/29 05:11:30;;;;;;;1.97;1.40;;;;;;;9.86;90.14;94263.38;5074191;28;20572;-77
2021/05/29 05:13:56;;;;;;;3.87;2.10;;;;;;;9.94;89.80;94258.06;5075109;28;20253;-77
2021/05/29 05:16:22;;;;;;;3.67;1.80;;;;;;;10.04;87.04;94257.78;5075203;28;20221;-77
2021/05/29 05:18:48;;;;;;;3.70;1.70;;;;;;;10.11;87.25;94267.28;5075319;28;20281;-76
2021/05/29 05:21:16;;;;;;;3.13;1.50;;;;;;;10.23;87.20;94265.00;5075182;28;20203;-77
2021/05/29 05:23:43;;;;;;;3.10;1.53;;;;;;;10.34;85.47;94261.09;5075014;28;20226;-77
2021/05/29 05:26:10;;;;;;;1.83;1.47;;;;;;;10.38;85.14;94269.41;5074964;28;20199;-76
2021/05/29 05:28:36;;;;;;;7.63;1.70;;;;;;;10.45;86.54;94271.06;5075231;28;20657;-76
2021/05/29 05:31:05;;;;;;;4.03;1.67;;;;;;;10.40;85.99;94275.22;5074951;28;20211;-77
2021/05/29 05:33:33;;;;;;;3.77;1.60;;;;;;;10.31;84.34;94279.75;5074851;28;20222;-77
2021/05/29 05:36:00;;;;;;;3.80;1.50;;;;;;;10.44;84.28;94273.84;5074961;28;20289;-78
2021/05/29 05:38:26;;;;;;;3.93;1.83;;;;;;;10.47;82.86;94273.47;5074734;28;20206;-77
2021/05/29 05:40:53;;;;;;;1.60;1.50;;;;;;;10.59;84.42;94272.00;5074690;28;20199;-76
2021/05/29 05:43:19;;;;;;;3.70;1.70;;;;;;;10.65;83.23;94273.03;5074677;28;20658;-76
2021/05/29 05:45:45;;;;;;;1.93;1.20;;;;;;;10.74;82.44;94272.72;5074545;28;20251;-76
2021/05/29 05:48:11;;;;;;;4.03;1.40;;;;;;;10.76;81.05;94271.69;5074701;28;20217;-77
2021/05/29 05:50:51;;;;;;;2.40;1.40;;;;;;;10.84;82.22;94263.72;5074479;28;20669;-76
2021/05/29 05:53:17;;;;;;;1.63;1.30;;;;;;;10.99;80.91;94264.47;5074379;28;20241;-77
2021/05/29 05:55:43;;;;;;;5.90;1.20;;;;;;;11.25;80.71;94270.84;5074623;28;20203;-76
2021/05/29 05:58:10;;;;;;;1.97;1.33;;;;;;;11.32;78.34;94261.22;5074545;28;20585;-76
2021/05/29 06:00:36;;;;;;;1.73;1.60;;;;;;;11.32;77.75;94263.84;5074461;28;20238;-76
2021/05/29 06:03:02;;;;;;;3.10;1.40;;;;;;;11.48;77.31;94267.97;5074305;28;20256;-76
2021/05/29 06:05:28;;;;;;;2.60;1.20;;;;;;;11.80;75.33;94268.28;5074247;28;20203;-76
2021/05/29 06:07:54;;;;;;;1.53;1.30;;;;;;;12.03;74.80;94268.81;5074072;28;20814;-76
2021/05/29 06:10:20;;;;;;;1.20;1.10;;;;;;;12.08;74.60;94270.84;5074305;28;20218;-76
2021/05/29 06:12:49;;;;;;;1.57;1.20;;;;;;;12.31;75.50;94274.94;5073929;28;20230;-76
2021/05/29 06:18:14;;;;;;;2.53;1.40;;;;;;;12.00;75.12;94284.09;5074097;28;20268;-76
2021/05/29 06:20:44;;;;;;;3.17;1.50;;;;;;;12.22;75.72;94292.59;5074252;28;20289;-75
2021/05/29 06:23:12;;;;;;;3.13;1.70;;;;;;;12.20;72.02;94292.00;5073759;28;20326;-76
2021/05/29 06:25:38;;;;;;;2.23;1.43;;;;;;;12.13;71.59;94286.75;5073837;28;20662;-77
2021/05/29 06:28:04;;;;;;;3.07;1.27;;;;;;;12.21;73.00;94289.19;5073619;28;20199;-76
2021/05/29 06:30:31;;;;;;;2.47;1.30;;;;;;;12.32;74.34;94292.22;5073705;28;20216;-76
2021/05/29 06:32:57;;;;;;;3.97;1.30;;;;;;;12.39;73.28;94287.84;5073551;28;20226;-77
2021/05/29 06:35:23;;;;;;;3.83;1.50;;;;;;;12.69;70.73;94297.94;5073637;28;20259;-77
2021/05/29 06:37:49;;;;;;;3.80;1.47;;;;;;;13.01;66.27;94291.09;5073731;28;20285;-76
2021/05/29 06:40:15;;;;;;;2.38;1.17;;;;;;;13.40;68.58;94299.94;5073726;28;20289;-76
2021/05/29 06:42:41;;;;;;;2.05;1.10;;;;;;;13.65;65.40;94305.34;5076046;28;20203;-77
2021/05/29 06:45:08;;;;;;;6.45;1.30;;;;;;;13.57;63.18;94302.94;5073429;28;20707;-77
2021/05/29 06:47:35;;;;;;;2.08;1.10;;;;;;;13.73;63.59;94298.28;5073347;28;20207;-76
2021/05/29 06:50:02;;;;;;;2.50;1.27;;;;;;;13.90;65.11;94299.41;5073616;28;20195;-76
2021/05/29 06:52:30;;;;;;;2.42;1.45;;;;;;;13.74;64.45;94305.13;5073413;28;20206;-76
2021/05/29 06:55:02;;;;;;;3.22;1.63;;;;;;;13.93;66.28;94306.88;5073424;28;20596;-75
2021/05/29 07:00:14;;;;;;;6.35;1.20;;;;;;;13.54;64.70;94313.03;5073282;28;20198;-76
2021/05/29 07:02:41;;;;;;;2.45;1.38;;;;;;;13.67;64.27;94319.06;5073348;28;20213;-76
2021/05/29 07:05:11;;;;;;;1.38;1.27;;;;;;;13.85;63.94;94317.59;5073273;28;20202;-76
2021/05/29 07:07:37;;;;;;;1.83;1.10;;;;;;;14.06;63.17;94319.94;5073183;28;20222;-76
2021/05/29 07:10:05;;;;;;;3.13;1.38;;;;;;;14.29;61.01;94313.41;5073102;28;20233;-75
2021/05/29 07:12:31;;;;;;;4.05;1.33;;;;;;;14.01;62.43;94313.72;5072907;28;20238;-75
2021/05/29 07:14:57;;;;;;;2.47;1.20;;;;;;;13.80;63.11;94314.78;5073206;28;20264;-76
2021/05/29 07:17:29;;;;;;;3.10;1.30;;;;;;;13.88;62.20;94311.94;5073041;28;20260;-76
2021/05/29 07:19:56;;;;;;;2.40;1.20;;;;;;;14.17;62.42;94315.06;5073024;28;20213;-77
2021/05/29 07:22:22;;;;;;;1.10;1.00;;;;;;;14.49;62.49;94308.03;5072891;28;20199;-77
2021/05/29 07:24:48;;;;;;;1.67;1.23;;;;;;;14.58;61.13;94309.38;5072764;28;20280;-76
2021/05/29 07:27:14;;;;;;;2.53;1.20;;;;;;;14.87;60.53;94314.28;5072757;28;20206;-78
2021/05/29 07:29:40;;;;;;;4.60;1.23;;;;;;;14.71;60.27;94311.16;5072988;28;20234;-78
2021/05/29 07:32:07;;;;;;;3.72;1.25;;;;;;;14.85;58.85;94308.44;5072788;28;20195;-75
2021/05/29 07:34:33;;;;;;;2.08;1.05;;;;;;;15.02;59.28;94303.44;5072313;28;20249;-78
2021/05/29 07:37:00;;;;;;;3.13;1.40;;;;;;;14.79;57.84;94308.25;5072864;28;20669;-76
2021/05/29 07:39:26;;;;;;;1.20;1.02;;;;;;;14.68;59.35;94311.56;5072701;28;20654;-76
2021/05/29 07:41:52;;;;;;;2.00;1.10;;;;;;;14.60;57.49;94314.44;5081968;28;20684;-76
2021/05/29 07:44:18;;;;;;;2.80;1.17;;;;;;;14.57;57.72;94315.66;5093182;28;20220;-76
2021/05/29 07:46:44;;;;;;;2.55;1.30;;;;;;;14.67;57.04;94319.66;5093005;28;20553;-77
2021/05/29 07:49:10;;;;;;;1.10;0.93;;;;;;;14.73;59.35;94314.38;5092667;28;20206;-76
2021/05/29 07:51:37;;;;;;;1.15;1.00;;;;;;;14.64;58.40;94315.66;5092512;28;20293;-76
2021/05/29 07:54:04;;;;;;;1.80;1.02;;;;;;;14.86;59.93;94317.94;5092550;28;20229;-81
2021/05/29 07:56:30;;;;;;;3.65;1.30;;;;;;;14.57;55.99;94317.47;5092758;28;20202;-78
2021/05/29 07:58:58;;;;;;;4.22;1.38;;;;;;;14.25;57.68;94318.25;5092654;28;20656;-76
2021/05/29 08:01:24;;;;;;;3.67;1.30;;;;;;;14.44;57.87;94319.16;5092859;28;20198;-76
2021/05/29 08:03:50;;;;;;;2.97;1.08;;;;;;;14.59;60.13;94313.66;5092719;28;20663;-76
2021/05/29 08:06:18;;;;;;;2.30;1.35;;;;;;;14.66;54.94;94329.38;5092792;28;20206;-76
2021/05/29 08:08:45;;;;;;;1.58;1.13;;;;;;;14.68;56.29;94314.19;5092596;28;20194;-76
2021/05/29 08:11:16;;;;;;;4.43;1.00;;;;;;;14.56;56.79;94313.25;5092546;28;20661;-76
2021/05/29 08:13:42;;;;;;;2.53;1.27;;;;;;;14.28;59.36;94314.41;5092583;28;20229;-76
2021/05/29 08:16:08;;;;;;;3.55;1.17;;;;;;;14.66;64.81;94308.34;5092543;28;20599;-76
2021/05/29 08:18:34;;;;;;;1.10;1.00;;;;;;;14.63;56.99;94315.88;5092381;28;20534;-77
2021/05/29 08:21:00;;;;;;;1.38;1.10;;;;;;;14.71;55.13;94315.63;5092508;28;20572;-76
2021/05/29 08:23:26;;;;;;;1.93;1.20;;;;;;;14.40;51.22;94315.34;5092232;28;20242;-76
2021/05/29 08:25:52;;;;;;;2.30;1.20;;;;;;;14.41;52.81;94313.53;5092741;28;20297;-76
2021/05/29 08:28:19;;;;;;;3.78;1.02;;;;;;;14.38;52.27;94312.13;5092463;28;20203;-76
2021/05/29 08:30:45;;;;;;;2.90;1.20;;;;;;;14.62;52.39;94312.41;5092491;28;20204;-76
2021/05/29 08:33:11;;;;;;;1.98;1.20;;;;;;;14.93;52.53;94310.78;5092499;28;20226;-77
2021/05/29 08:35:38;;;;;;;1.10;1.00;;;;;;;15.06;50.49;94315.94;5087851;28;20555;-77
2021/05/29 08:38:04;;;;;;;2.53;1.13;;;;;;;15.17;53.55;94315.25;5092094;28;20584;-76
2021/05/29 08:40:30;;;;;;;1.98;0.90;;;;;;;15.18;55.38;94308.16;5092388;28;20210;-76
2021/05/29 08:42:56;;;;;;;1.80;1.20;;;;;;;15.25;51.80;94313.38;5092467;28;20194;-78
2021/05/29 08:45:23;;;;;;;2.15;1.13;;;;;;;15.14;54.20;94310.44;5092310;28;20251;-77
2021/05/29 08:47:50;;;;;;;3.33;1.30;;;;;;;15.31;55.77;94320.41;5095841;28;20202;-78
2021/05/29 08:50:17;;;;;;;3.42;1.38;;;;;;;15.19;49.56;94317.69;5095876;28;20205;-76
2021/05/29 08:52:43;;;;;;;1.17;1.08;;;;;;;15.13;51.21;94321.94;5095917;28;20338;-76
2021/05/29 08:55:11;;;;;;;1.88;1.10;;;;;;;15.06;50.60;94318.59;5095941;28;20285;-76
2021/05/29 08:57:38;;;;;;;1.45;0.90;;;;;;;14.99;48.51;94317.84;5095732;28;20205;-76
2021/05/29 09:00:06;;;;;;;4.47;1.10;;;;;;;14.74;49.32;94316.00;5095743;28;20202;-77
2021/05/29 09:02:33;;;;;;;1.27;0.87;;;;;;;14.84;51.01;94320.78;5095680;28;20198;-76
2021/05/29 09:05:08;;;;;;;2.72;0.90;;;;;;;15.22;53.16;94316.44;5095574;28;20201;-74
2021/05/29 09:07:34;;;;;;;1.65;0.90;;;;;;;15.40;51.95;94324.34;5095697;28;20201;-78
2021/05/29 09:10:21;;;;;;;1.40;0.88;;;;;;;15.31;51.74;94315.16;5095636;28;20220;-75
2021/05/29 09:13:06;;;;;;;1.63;1.17;;;;;;;15.24;52.86;94323.09;5095407;28;20671;-77
2021/05/29 09:15:44;;;;;;;2.92;0.90;;;;;;;15.36;51.91;94320.56;5095225;28;20284;-77
2021/05/29 09:18:28;;;;;;;4.03;1.10;;;;;;;15.29;49.68;94320.63;5095583;28;20266;-78
2021/05/29 09:20:54;;;;;;;2.17;0.82;;;;;;;15.27;48.14;94327.94;5095406;28;20346;-79
2021/05/29 09:23:20;;;;;;;2.20;1.20;;;;;;;14.95;49.86;94327.16;5095171;28;20225;-77
2021/05/29 09:25:56;;;;;;;2.65;1.00;;;;;;;14.36;50.26;94329.91;5095128;28;20285;-77
2021/05/29 09:28:23;;;;;;;1.93;0.90;;;;;;;14.19;51.87;94321.72;5095434;28;20197;-79
2021/05/29 09:30:51;;;;;;;3.63;1.20;;;;;;;14.53;52.44;94330.22;5095093;28;20202;-77
2021/05/29 09:33:19;;;;;;;1.93;1.20;;;;;;;14.84;51.62;94323.41;5095112;28;20226;-77
2021/05/29 09:35:49;;;;;;;3.60;1.10;;;;;;;14.96;48.05;94334.03;5095137;28;20357;-78
2021/05/29 09:38:15;;;;;;;1.95;1.00;;;;;;;15.12;51.12;94320.38;5094947;28;20222;-77
2021/05/29 09:40:49;;;;;;;2.80;1.10;;;;;;;15.54;46.83;94320.59;5095121;28;20210;-77
2021/05/29 09:43:17;;;;;;;1.95;1.10;;;;;;;15.90;52.02;94326.94;5094923;28;20661;-77
2021/05/29 09:45:45;;;;;;;2.03;1.00;;;;;;;15.49;46.68;94330.97;5094985;28;20206;-77
2021/05/29 09:48:16;;;;;;;2.38;1.00;;;;;;;15.03;50.14;94328.72;5094787;28;20285;-76
2021/05/29 09:51:04;;;;;;;2.92;1.13;;;;;;;14.92;50.37;94332.84;5094761;28;20212;-77
2021/05/29 09:53:33;;;;;;;4.40;1.20;;;;;;;15.10;51.00;94332.91;5094837;28;20318;-80
2021/05/29 09:56:01;;;;;;;1.98;1.05;;;;;;;15.44;51.69;94325.56;5096933;28;20198;-82
2021/05/29 09:58:50;;;;;;;2.80;1.08;;;;;;;15.67;49.40;94321.47;5094635;28;20194;-76
2021/05/29 10:01:43;;;;;;;1.88;1.40;;;;;;;15.63;49.20;94330.84;5094616;28;20221;-77
2021/05/29 10:04:10;;;;;;;1.73;1.13;;;;;;;15.56;50.51;94319.56;5094632;28;20198;-77
2021/05/29 10:06:37;;;;;;;1.73;1.15;;;;;;;16.10;47.61;94323.25;5094563;28;20229;-77
2021/05/29 10:09:05;;;;;;;2.75;1.10;;;;;;;16.26;49.34;94321.84;5094496;28;20205;-76
2021/05/29 10:11:31;;;;;;;16.95;4.93;;;;;;;16.45;50.33;94322.63;5094123;28;20652;-78
2021/05/29 10:13:57;;;;;;;58.70;28.25;;;;;;;16.30;49.68;94322.22;5094248;28;20320;-75
2021/05/29 10:16:29;;;;;;;18.50;8.95;;;;;;;16.12;49.17;94331.75;5094364;28;20251;-76
2021/05/29 10:19:00;;;;;;;7.28;4.95;;;;;;;15.90;51.98;94324.31;5094451;28;20271;-77
2021/05/29 10:21:29;;;;;;;3.80;2.10;;;;;;;15.52;52.24;94327.91;5094241;28;20658;-78
2021/05/29 10:23:59;;;;;;;11.15;5.38;;;;;;;15.44;51.32;94337.91;5093916;28;20226;-76
2021/05/29 10:26:29;;;;;;;2.83;1.50;;;;;;;15.24;53.69;94325.72;5094612;28;20209;-77
2021/05/29 10:28:56;;;;;;;5.60;1.65;;;;;;;15.17;51.77;94330.22;5094147;28;20227;-77
2021/05/29 10:31:23;;;;;;;3.83;2.10;;;;;;;15.50;51.73;94327.31;5094155;28;20198;-77
2021/05/29 10:33:49;;;;;;;2.92;1.40;;;;;;;15.76;51.19;94322.84;5093690;28;20626;-77
2021/05/29 10:36:35;;;;;;;1.98;1.35;;;;;;;16.07;50.39;94335.06;5086263;28;20617;-77
2021/05/29 10:39:04;;;;;;;5.30;1.30;;;;;;;16.26;55.16;94325.28;5073722;28;20210;-77
2021/05/29 10:41:52;;;;;;;2.08;1.60;;;;;;;16.48;54.44;94334.56;5073627;28;20202;-77
2021/05/29 10:44:29;;;;;;;3.13;1.60;;;;;;;16.26;51.34;94333.19;5073550;28;20210;-77
2021/05/29 10:47:10;;;;;;;4.40;1.58;;;;;;;16.28;49.83;94339.03;5073566;28;20285;-77
2021/05/29 10:49:56;;;;;;;3.90;1.80;;;;;;;16.26;51.06;94338.47;5073392;28;20252;-76
2021/05/29 10:52:51;;;;;;;3.20;1.38;;;;;;;15.98;49.82;94339.00;5072101;28;20446;-77
2021/05/29 10:55:25;;;;;;;13.98;6.13;;;;;;;15.62;49.85;94337.09;5073235;28;20256;-77
2021/05/29 10:57:55;;;;;;;3.25;1.52;;;;;;;15.65;50.98;94329.56;5073484;28;20201;-76
2021/05/29 11:00:55;;;;;;;3.25;1.20;;;;;;;15.91;50.74;94328.53;5073367;28;20264;-78
2021/05/29 11:03:25;;;;;;;1.88;1.30;;;;;;;15.81;49.42;94330.88;5070461;28;20210;-77
2021/05/29 11:05:54;;;;;;;2.80;1.52;;;;;;;16.03;51.59;94333.88;5073057;28;20542;-76
2021/05/29 11:08:48;;;;;;;1.73;1.30;;;;;;;15.93;48.70;94338.06;5072599;28;20199;-78
2021/05/29 11:11:52;;;;;;;4.25;1.52;;;;;;;15.59;49.04;94332.28;5073096;28;20199;-78
2021/05/29 11:14:20;;;;;;;6.10;2.50;;;;;;;15.45;48.50;94332.41;5072767;28;20234;-76
2021/05/29 11:17:14;;;;;;;4.00;1.75;;;;;;;15.62;51.18;94331.84;5073140;28;20252;-76
2021/05/29 11:19:43;;;;;;;2.92;1.30;;;;;;;16.19;46.96;94337.75;5072962;28;20202;-76
2021/05/29 11:22:14;;;;;;;4.82;3.30;;;;;;;16.25;47.96;94331.59;5072922;28;20198;-76
2021/05/29 11:24:42;;;;;;;2.90;1.50;;;;;;;16.67;47.34;94333.50;5072584;28;20705;-76
2021/05/29 11:27:09;;;;;;;1.55;1.23;;;;;;;16.14;46.83;94345.50;5072869;28;20233;-77
2021/05/29 11:29:53;;;;;;;3.22;1.30;;;;;;;15.77;48.93;94344.69;5072997;28;20195;-76
2021/05/29 11:32:46;;;;;;;1.83;1.30;;;;;;;15.17;47.00;94341.56;5073069;28;20294;-76
2021/05/29 11:35:33;;;;;;;2.72;1.13;;;;;;;15.76;49.88;94327.31;5073207;28;20194;-77
2021/05/29 11:38:07;;;;;;;1.20;1.10;;;;;;;16.28;50.33;94325.88;5067904;28;20400;-77
2021/05/29 11:40:48;;;;;;;1.50;1.08;;;;;;;16.69;45.66;94336.72;5072714;28;20242;-77
2021/05/29 11:43:15;;;;;;;1.52;1.10;;;;;;;16.79;47.57;94325.63;5072658;28;20210;-76
2021/05/29 11:45:43;;;;;;;1.25;0.93;;;;;;;17.15;46.74;94326.50;5072873;28;20213;-78
2021/05/29 11:48:10;;;;;;;3.95;1.27;;;;;;;17.34;46.47;94320.09;5072804;28;20560;-76
2021/05/29 11:50:40;;;;;;;1.52;1.08;;;;;;;17.57;44.66;94329.09;5072756;28;20198;-76